createdAt,value
2018-12-19T00:01:30.698Z,2.20
2018-12-19T00:03:59.080Z,2.10
2018-12-19T00:06:27.526Z,2.20
2018-12-19T00:08:55.890Z,2.20
2018-12-19T00:11:24.900Z,2.00
2018-12-19T00:13:53.232Z,2.10
2018-12-19T00:16:21.565Z,2.10
2018-12-19T00:18:49.915Z,2.10
2018-12-19T00:21:18.387Z,2.00
2018-12-19T00:23:47.737Z,2.00
2018-12-19T00:26:16.086Z,2.00
2018-12-19T00:28:44.451Z,1.90
2018-12-19T00:31:12.868Z,1.90
2018-12-19T00:33:41.300Z,2.00
2018-12-19T00:36:09.655Z,1.90
2018-12-19T00:38:38.020Z,1.90
2018-12-19T00:41:06.446Z,1.80
2018-12-19T00:43:34.872Z,1.90
2018-12-19T00:46:03.243Z,1.90
2018-12-19T00:48:31.644Z,1.90
2018-12-19T00:51:01.076Z,1.90
2018-12-19T00:53:30.550Z,1.90
2018-12-19T00:55:58.914Z,1.80
2018-12-19T00:58:28.040Z,1.80
2018-12-19T01:00:59.341Z,1.60
2018-12-19T01:03:27.892Z,1.70
2018-12-19T01:05:56.251Z,1.70
2018-12-19T01:08:24.571Z,1.70
2018-12-19T01:10:52.936Z,1.60
2018-12-19T01:13:21.266Z,1.70
2018-12-19T01:15:49.666Z,1.70
2018-12-19T01:18:18.023Z,1.80
2018-12-19T01:20:46.388Z,1.90
2018-12-19T01:23:15.380Z,1.90
2018-12-19T01:25:43.728Z,1.80
2018-12-19T01:28:12.059Z,1.70
2018-12-19T01:30:40.402Z,1.70
2018-12-19T01:33:08.876Z,1.70
2018-12-19T01:35:37.231Z,1.70
2018-12-19T01:38:05.582Z,1.70
2018-12-19T01:40:34.218Z,1.80
2018-12-19T01:43:02.691Z,1.80
2018-12-19T01:45:31.065Z,1.70
2018-12-19T01:47:59.403Z,1.70
2018-12-19T01:50:27.753Z,1.60
2018-12-19T01:52:56.677Z,1.60
2018-12-19T01:55:25.040Z,1.60
2018-12-19T01:57:53.393Z,1.60
2018-12-19T02:00:26.103Z,1.60
2018-12-19T02:02:54.476Z,1.60
2018-12-19T02:05:23.722Z,1.70
2018-12-19T02:07:52.089Z,1.60
2018-12-19T02:10:20.441Z,1.50
2018-12-19T02:12:50.087Z,1.40
2018-12-19T02:15:18.564Z,1.60
2018-12-19T02:17:46.959Z,1.60
2018-12-19T02:20:15.308Z,1.70
2018-12-19T02:22:43.903Z,1.70
2018-12-19T02:25:12.388Z,1.80
2018-12-19T02:27:40.732Z,1.70
2018-12-19T02:30:09.213Z,1.60
2018-12-19T02:32:37.595Z,1.70
2018-12-19T02:35:06.107Z,1.70
2018-12-19T02:37:34.685Z,1.60
2018-12-19T02:40:03.135Z,1.50
2018-12-19T02:42:31.584Z,1.50
2018-12-19T02:44:59.936Z,1.50
2018-12-19T02:47:28.297Z,1.50
2018-12-19T02:49:56.649Z,1.50
2018-12-19T02:52:25.008Z,1.50
2018-12-19T02:54:53.381Z,1.60
2018-12-19T02:57:23.008Z,1.70
2018-12-19T02:59:52.101Z,1.80
2018-12-19T03:02:21.409Z,1.70
2018-12-19T03:04:50.865Z,1.60
2018-12-19T03:07:19.217Z,1.60
2018-12-19T03:09:47.635Z,1.80
2018-12-19T03:12:16.118Z,1.70
2018-12-19T03:14:44.572Z,1.80
2018-12-19T03:17:14.040Z,1.90
2018-12-19T03:19:42.377Z,2.00
2018-12-19T03:22:11.730Z,1.90
2018-12-19T03:24:40.101Z,1.80
2018-12-19T03:27:08.549Z,1.90
2018-12-19T03:29:36.960Z,2.00
2018-12-19T03:32:05.291Z,1.90
2018-12-19T03:34:34.222Z,2.00
2018-12-19T03:37:02.893Z,2.00
2018-12-19T03:39:31.415Z,1.90
2018-12-19T03:41:59.765Z,1.90
2018-12-19T03:44:29.121Z,1.90
2018-12-19T03:46:57.545Z,2.00
2018-12-19T03:49:26.208Z,2.10
2018-12-19T03:51:54.661Z,2.00
2018-12-19T03:54:23.927Z,2.00
2018-12-19T03:56:53.360Z,2.00
2018-12-19T03:59:21.730Z,1.90
2018-12-19T04:01:50.465Z,1.90
2018-12-19T04:04:18.794Z,2.00
2018-12-19T04:06:47.384Z,2.10
2018-12-19T04:09:15.749Z,2.00
2018-12-19T04:11:44.743Z,2.00
2018-12-19T04:14:13.191Z,1.90
2018-12-19T04:16:41.598Z,2.00
2018-12-19T04:19:09.947Z,1.90
2018-12-19T04:21:38.662Z,1.80
2018-12-19T04:24:07.744Z,1.90
2018-12-19T04:26:36.107Z,2.00
2018-12-19T04:29:04.484Z,2.00
2018-12-19T04:31:32.823Z,2.00
2018-12-19T04:34:01.871Z,1.90
2018-12-19T04:36:30.804Z,1.90
2018-12-19T04:38:59.240Z,1.90
2018-12-19T04:41:27.612Z,2.00
2018-12-19T04:43:55.988Z,1.90
2018-12-19T04:46:24.361Z,1.90
2018-12-19T04:48:53.225Z,1.90
2018-12-19T04:51:21.587Z,1.90
2018-12-19T04:53:49.931Z,1.90
2018-12-19T04:56:18.274Z,1.90
2018-12-19T04:58:47.485Z,1.80
2018-12-19T05:01:15.798Z,1.70
2018-12-19T05:03:45.257Z,1.70
2018-12-19T05:06:13.584Z,1.80
2018-12-19T05:08:41.941Z,1.80
2018-12-19T05:11:10.393Z,1.90
2018-12-19T05:13:38.816Z,2.00
2018-12-19T05:16:07.142Z,2.00
2018-12-19T05:18:36.537Z,2.00
2018-12-19T05:21:04.919Z,2.00
2018-12-19T05:23:33.253Z,2.00
2018-12-19T05:26:01.638Z,1.90
2018-12-19T05:28:29.996Z,1.80
2018-12-19T05:30:59.216Z,1.90
2018-12-19T05:33:27.549Z,1.90
2018-12-19T05:35:56.677Z,2.00
2018-12-19T05:38:25.055Z,1.90
2018-12-19T05:40:55.255Z,2.00
2018-12-19T05:43:25.304Z,1.90
2018-12-19T05:45:55.555Z,1.90
2018-12-19T05:48:23.995Z,1.80
2018-12-19T05:50:52.479Z,1.70
2018-12-19T05:53:20.823Z,1.80
2018-12-19T05:55:49.208Z,1.90
2018-12-19T05:58:17.548Z,1.90
2018-12-19T06:00:46.548Z,1.90
2018-12-19T06:03:14.875Z,2.00
2018-12-19T06:05:43.392Z,1.90
2018-12-19T06:08:11.765Z,1.90
2018-12-19T06:10:40.178Z,1.90
2018-12-19T06:13:08.522Z,1.90
2018-12-19T06:15:36.915Z,2.00
2018-12-19T06:18:05.306Z,2.00
2018-12-19T06:20:33.753Z,2.10
2018-12-19T06:23:02.104Z,2.10
2018-12-19T06:25:30.459Z,2.20
2018-12-19T06:27:58.938Z,2.10
2018-12-19T06:30:27.915Z,2.00
2018-12-19T06:32:57.294Z,2.00
2018-12-19T06:35:25.640Z,2.00
2018-12-19T06:37:55.882Z,2.10
2018-12-19T06:40:24.263Z,2.20
2018-12-19T06:42:52.640Z,2.20
2018-12-19T06:45:21.179Z,2.20
2018-12-19T06:47:49.617Z,2.30
2018-12-19T06:50:17.975Z,2.30
2018-12-19T06:52:46.381Z,2.30
2018-12-19T06:55:14.836Z,2.40
2018-12-19T06:57:43.258Z,2.40
2018-12-19T07:00:11.744Z,2.50
2018-12-19T07:02:40.112Z,2.50
2018-12-19T07:05:08.455Z,2.60
2018-12-19T07:07:36.774Z,2.60
2018-12-19T07:10:05.827Z,2.60
2018-12-19T07:12:34.359Z,2.60
2018-12-19T07:15:02.853Z,2.60
2018-12-19T07:17:31.323Z,2.60
2018-12-19T07:19:59.818Z,2.70
2018-12-19T07:22:28.208Z,2.70
2018-12-19T07:24:57.410Z,2.70
2018-12-19T07:27:25.779Z,2.70
2018-12-19T07:29:54.468Z,2.60
2018-12-19T07:32:22.803Z,2.50
2018-12-19T07:34:51.195Z,2.30
2018-12-19T07:37:19.566Z,2.30
2018-12-19T07:39:47.926Z,2.30
2018-12-19T07:42:16.272Z,2.30
2018-12-19T07:44:44.648Z,2.40
2018-12-19T07:47:12.983Z,2.50
2018-12-19T07:49:41.354Z,2.50
2018-12-19T07:52:09.708Z,2.60
2018-12-19T07:54:38.068Z,2.60
2018-12-19T07:57:06.413Z,2.60
2018-12-19T07:59:34.807Z,2.60
2018-12-19T08:02:03.244Z,2.70
2018-12-19T08:04:32.058Z,2.70
2018-12-19T08:07:00.387Z,2.80
2018-12-19T08:09:28.740Z,2.90
2018-12-19T08:11:57.743Z,2.90
2018-12-19T08:14:26.091Z,2.80
2018-12-19T08:16:54.497Z,2.80
2018-12-19T08:19:22.853Z,2.70
2018-12-19T08:21:51.191Z,2.80
2018-12-19T08:24:19.619Z,2.70
2018-12-19T08:26:48.092Z,2.80
2018-12-19T08:29:16.404Z,2.70
2018-12-19T08:31:44.925Z,2.70
2018-12-19T08:34:13.460Z,2.70
2018-12-19T08:36:42.592Z,2.60
2018-12-19T08:39:10.936Z,2.60
2018-12-19T08:41:40.400Z,2.50
2018-12-19T08:44:08.899Z,2.50
2018-12-19T08:46:37.872Z,2.60
2018-12-19T08:49:06.431Z,2.60
2018-12-19T08:51:34.779Z,2.50
2018-12-19T08:54:03.344Z,2.60
2018-12-19T08:56:31.709Z,2.70
2018-12-19T08:59:00.106Z,2.70
2018-12-19T09:01:28.456Z,2.70
2018-12-19T09:03:57.241Z,2.70
2018-12-19T09:06:25.621Z,2.70
2018-12-19T09:08:54.002Z,2.70
2018-12-19T09:11:22.344Z,2.60
2018-12-19T09:13:50.722Z,2.70
2018-12-19T09:16:19.294Z,2.60
2018-12-19T09:18:47.866Z,2.60
2018-12-19T09:21:16.227Z,2.60
2018-12-19T09:23:44.624Z,2.70
2018-12-19T09:26:13.033Z,2.70
2018-12-19T09:28:41.516Z,2.70
2018-12-19T09:31:10.004Z,2.70
2018-12-19T09:33:38.450Z,2.70
2018-12-19T09:36:07.045Z,2.70
2018-12-19T09:38:35.436Z,2.70
2018-12-19T09:41:03.919Z,2.80
2018-12-19T09:43:32.437Z,2.90
2018-12-19T09:46:00.967Z,3.00
2018-12-19T09:48:29.400Z,2.90
2018-12-19T09:50:57.864Z,3.00
2018-12-19T09:53:27.192Z,2.90
2018-12-19T09:55:56.220Z,2.90
2018-12-19T09:58:25.133Z,3.00
2018-12-19T10:00:53.565Z,3.00
2018-12-19T10:03:21.962Z,3.10
2018-12-19T10:05:50.364Z,3.10
2018-12-19T10:08:18.835Z,3.10
2018-12-19T10:10:47.321Z,3.10
2018-12-19T10:13:15.688Z,3.10
2018-12-19T10:15:44.135Z,3.10
2018-12-19T10:18:12.491Z,3.10
2018-12-19T10:20:41.211Z,3.10
2018-12-19T10:23:09.559Z,3.10
2018-12-19T10:25:37.934Z,3.20
2018-12-19T10:28:06.380Z,3.20
2018-12-19T10:30:39.990Z,3.20
2018-12-19T10:33:08.509Z,3.20
2018-12-19T10:35:37.740Z,3.30
2018-12-19T10:38:06.081Z,3.30
2018-12-19T10:40:34.526Z,3.40
2018-12-19T10:43:03.483Z,3.40
2018-12-19T10:45:31.940Z,3.40
2018-12-19T10:48:00.387Z,3.40
2018-12-19T10:50:28.871Z,3.50
2018-12-19T10:52:57.241Z,3.50
2018-12-19T10:55:25.610Z,3.40
2018-12-19T10:57:54.041Z,3.40
2018-12-19T11:00:27.780Z,3.30
2018-12-19T11:02:56.226Z,3.20
2018-12-19T11:05:24.723Z,3.30
2018-12-19T11:07:53.174Z,3.40
2018-12-19T11:10:22.274Z,3.40
2018-12-19T11:12:50.634Z,3.40
2018-12-19T11:15:19.024Z,3.50
2018-12-19T11:17:47.385Z,3.50
2018-12-19T11:20:15.880Z,3.50
2018-12-19T11:22:44.360Z,3.60
2018-12-19T11:25:12.892Z,3.60
2018-12-19T11:27:41.381Z,3.50
2018-12-19T11:30:09.912Z,3.50
2018-12-19T11:32:38.290Z,3.50
2018-12-19T11:35:06.926Z,3.60
2018-12-19T11:37:35.294Z,3.70
2018-12-19T11:40:04.319Z,3.70
2018-12-19T11:42:32.720Z,3.70
2018-12-19T11:45:02.207Z,3.70
2018-12-19T11:47:31.593Z,3.70
2018-12-19T11:50:00.658Z,3.70
2018-12-19T11:52:29.036Z,3.80
2018-12-19T11:54:57.432Z,3.90
2018-12-19T11:57:26.242Z,3.80
2018-12-19T11:59:54.676Z,3.80
2018-12-19T12:02:23.031Z,3.90
2018-12-19T12:04:52.064Z,3.80
2018-12-19T12:07:20.774Z,3.80
2018-12-19T12:09:49.232Z,3.80
2018-12-19T12:12:17.642Z,3.90
2018-12-19T12:14:46.089Z,4.00
2018-12-19T12:17:14.464Z,4.10
2018-12-19T12:19:42.815Z,4.10
2018-12-19T12:22:11.846Z,4.10
2018-12-19T12:24:40.273Z,4.10
2018-12-19T12:27:08.730Z,4.10
2018-12-19T12:29:37.141Z,4.20
2018-12-19T12:32:05.531Z,4.20
2018-12-19T12:34:34.568Z,4.20
2018-12-19T12:37:03.988Z,4.20
2018-12-19T12:39:32.372Z,4.10
2018-12-19T12:42:01.242Z,4.00
2018-12-19T12:44:30.136Z,4.10
2018-12-19T12:46:58.609Z,4.20
2018-12-19T12:49:26.957Z,4.20
2018-12-19T12:51:55.490Z,4.30
2018-12-19T12:54:23.877Z,4.30
2018-12-19T12:56:52.409Z,4.30
2018-12-19T12:59:20.904Z,4.30
2018-12-19T13:01:49.977Z,4.20
2018-12-19T13:04:18.362Z,4.20
2018-12-19T13:06:46.847Z,4.20
2018-12-19T13:09:15.298Z,4.20
2018-12-19T13:11:43.695Z,4.20
2018-12-19T13:14:12.594Z,4.30
2018-12-19T13:16:40.994Z,4.30
2018-12-19T13:19:10.114Z,4.30
2018-12-19T13:21:38.605Z,4.30
2018-12-19T13:24:07.035Z,4.30
2018-12-19T13:26:35.400Z,4.30
2018-12-19T13:29:03.983Z,4.30
2018-12-19T13:31:32.363Z,4.30
2018-12-19T13:34:00.742Z,4.40
2018-12-19T13:36:29.080Z,4.40
2018-12-19T13:38:57.556Z,4.40
2018-12-19T13:41:25.896Z,4.40
2018-12-19T13:43:54.344Z,4.40
2018-12-19T13:46:22.708Z,4.50
2018-12-19T13:48:51.086Z,4.40
2018-12-19T13:51:19.485Z,4.50
2018-12-19T13:53:47.981Z,4.50
2018-12-19T13:56:16.355Z,4.50
2018-12-19T13:58:44.944Z,4.50
2018-12-19T14:01:13.551Z,4.60
2018-12-19T14:03:42.004Z,4.60
2018-12-19T14:06:10.410Z,4.70
2018-12-19T14:08:39.794Z,4.70
2018-12-19T14:11:08.265Z,4.70
2018-12-19T14:13:37.224Z,4.80
2018-12-19T14:16:05.606Z,4.80
2018-12-19T14:18:33.982Z,4.80
2018-12-19T14:21:02.449Z,4.80
2018-12-19T14:23:30.793Z,4.90
2018-12-19T14:25:59.219Z,4.90
2018-12-19T14:28:27.732Z,4.80
2018-12-19T14:30:56.276Z,4.90
2018-12-19T14:33:24.662Z,4.90
2018-12-19T14:35:53.177Z,5.00
2018-12-19T14:38:22.195Z,5.00
2018-12-19T14:40:50.623Z,5.00
2018-12-19T14:43:19.003Z,5.00
2018-12-19T14:45:48.045Z,5.00
2018-12-19T14:48:16.460Z,5.00
2018-12-19T14:50:44.892Z,5.10
2018-12-19T14:53:13.330Z,5.00
2018-12-19T14:55:41.801Z,5.00
2018-12-19T14:58:10.284Z,4.90
2018-12-19T15:00:38.918Z,4.90
2018-12-19T15:03:07.786Z,5.00
2018-12-19T15:05:36.268Z,5.00
2018-12-19T15:08:05.348Z,5.00
2018-12-19T15:10:34.645Z,5.00
2018-12-19T15:13:03.896Z,5.00
2018-12-19T15:15:32.383Z,5.00
2018-12-19T15:18:00.837Z,5.10
2018-12-19T15:20:29.236Z,5.10
2018-12-19T15:22:57.651Z,5.20
2018-12-19T15:25:26.113Z,5.20
2018-12-19T15:27:54.596Z,5.20
2018-12-19T15:30:23.008Z,5.20
2018-12-19T15:32:51.603Z,5.20
2018-12-19T15:35:20.022Z,5.20
2018-12-19T15:37:48.437Z,5.30
2018-12-19T15:40:17.016Z,5.30
2018-12-19T15:42:45.527Z,5.30
2018-12-19T15:45:13.956Z,5.40
2018-12-19T15:47:42.449Z,5.30
2018-12-19T15:50:10.921Z,5.20
2018-12-19T15:52:39.438Z,5.20
2018-12-19T15:55:08.659Z,5.20
2018-12-19T15:57:37.170Z,5.20
2018-12-19T16:00:08.977Z,5.20
2018-12-19T16:02:37.411Z,5.30
2018-12-19T16:05:06.497Z,5.20
2018-12-19T16:07:35.093Z,5.20
2018-12-19T16:10:03.756Z,5.20
2018-12-19T16:12:38.974Z,5.20
2018-12-19T16:15:02.792Z,5.20
2018-12-19T16:17:31.228Z,5.30
2018-12-19T16:20:00.255Z,5.40
2018-12-19T16:22:29.301Z,5.30
2018-12-19T16:24:57.697Z,5.30
2018-12-19T16:27:26.244Z,5.30
2018-12-19T16:29:54.715Z,5.40
2018-12-19T16:32:23.116Z,5.40
2018-12-19T16:34:51.966Z,5.40
2018-12-19T16:37:20.922Z,5.40
2018-12-19T16:39:49.465Z,5.40
2018-12-19T16:42:17.892Z,5.40
2018-12-19T16:44:46.344Z,5.30
2018-12-19T16:47:14.908Z,5.40
2018-12-19T16:49:44.224Z,5.40
2018-12-19T16:52:12.697Z,5.30
2018-12-19T16:54:41.825Z,5.40
2018-12-19T16:57:10.351Z,5.50
2018-12-19T16:59:39.324Z,5.50
2018-12-19T17:02:08.604Z,5.60
2018-12-19T17:04:37.068Z,5.60
2018-12-19T17:07:05.457Z,5.60
2018-12-19T17:09:33.926Z,5.60
2018-12-19T17:12:02.489Z,5.60
2018-12-19T17:14:31.160Z,5.60
2018-12-19T17:16:59.672Z,5.60
2018-12-19T17:19:28.089Z,5.70
2018-12-19T17:21:56.436Z,5.60
2018-12-19T17:24:30.132Z,5.60
2018-12-19T17:26:58.665Z,5.60
2018-12-19T17:29:27.062Z,5.60
2018-12-19T17:31:55.449Z,5.60
2018-12-19T17:34:23.933Z,5.60
2018-12-19T17:36:52.387Z,5.60
2018-12-19T17:39:20.880Z,5.60
2018-12-19T17:41:49.233Z,5.60
2018-12-19T17:44:17.614Z,5.60
2018-12-19T17:46:46.081Z,5.60
2018-12-19T17:49:14.422Z,5.50
2018-12-19T17:51:42.761Z,5.60
2018-12-19T17:54:11.235Z,5.60
2018-12-19T17:56:39.721Z,5.60
2018-12-19T17:59:08.750Z,5.60
2018-12-19T18:01:37.350Z,5.50
2018-12-19T18:04:05.860Z,5.40
2018-12-19T18:06:34.245Z,5.30
2018-12-19T18:09:04.468Z,5.30
2018-12-19T18:11:32.873Z,5.20
2018-12-19T18:14:01.968Z,5.30
2018-12-19T18:16:30.394Z,5.30
2018-12-19T18:18:58.789Z,5.30
2018-12-19T18:21:28.059Z,5.30
2018-12-19T18:23:56.427Z,5.30
2018-12-19T18:26:24.792Z,5.30
2018-12-19T18:28:53.148Z,5.40
2018-12-19T18:31:21.569Z,5.30
2018-12-19T18:33:49.926Z,5.40
2018-12-19T18:36:18.332Z,5.40
2018-12-19T18:38:46.704Z,5.40
2018-12-19T18:41:15.057Z,5.30
2018-12-19T18:43:43.537Z,5.30
2018-12-19T18:46:12.053Z,5.20
2018-12-19T18:48:40.484Z,5.20
2018-12-19T18:51:08.952Z,5.20
2018-12-19T18:53:37.521Z,5.20
2018-12-19T18:56:06.091Z,5.30
2018-12-19T18:58:37.189Z,5.30
2018-12-19T19:01:06.589Z,5.30
2018-12-19T19:03:36.276Z,5.30
2018-12-19T19:06:05.022Z,5.40
2018-12-19T19:08:33.388Z,5.40
2018-12-19T19:11:01.741Z,5.40
2018-12-19T19:13:30.269Z,5.40
2018-12-19T19:15:59.823Z,5.30
2018-12-19T19:18:28.457Z,5.30
2018-12-19T19:20:56.878Z,5.30
2018-12-19T19:23:25.372Z,5.30
2018-12-19T19:25:54.088Z,5.40
2018-12-19T19:28:22.526Z,5.30
2018-12-19T19:30:50.961Z,5.30
2018-12-19T19:33:19.376Z,5.30
2018-12-19T19:35:47.743Z,5.40
2018-12-19T19:38:16.846Z,5.40
2018-12-19T19:40:45.210Z,5.40
2018-12-19T19:43:14.250Z,5.30
2018-12-19T19:45:43.691Z,5.30
2018-12-19T19:48:13.105Z,5.20
2018-12-19T19:50:41.516Z,5.20
2018-12-19T19:53:11.011Z,5.30
2018-12-19T19:55:39.939Z,5.30
2018-12-19T19:58:08.506Z,5.30
2018-12-19T20:00:37.608Z,5.30
2018-12-19T20:03:06.698Z,5.30
2018-12-19T20:05:35.095Z,5.30
2018-12-19T20:08:03.487Z,5.30
2018-12-19T20:10:31.968Z,5.40
2018-12-19T20:13:00.993Z,5.30
2018-12-19T20:15:29.484Z,5.30
2018-12-19T20:17:58.228Z,5.40
2018-12-19T20:20:26.650Z,5.40
2018-12-19T20:22:55.033Z,5.30
2018-12-19T20:25:23.500Z,5.40
2018-12-19T20:27:52.772Z,5.30
2018-12-19T20:30:22.023Z,5.40
2018-12-19T20:32:50.453Z,5.40
2018-12-19T20:35:19.118Z,5.40
2018-12-19T20:37:47.499Z,5.40
2018-12-19T20:40:15.852Z,5.40
2018-12-19T20:42:44.501Z,5.40
2018-12-19T20:45:13.927Z,5.50
2018-12-19T20:47:42.338Z,5.40
2018-12-19T20:50:10.967Z,5.50
2018-12-19T20:52:39.463Z,5.60
2018-12-19T20:55:07.858Z,5.50
2018-12-19T20:57:36.381Z,5.50
2018-12-19T21:00:06.054Z,5.60
2018-12-19T21:02:34.489Z,5.60
2018-12-19T21:05:03.181Z,5.70
2018-12-19T21:07:31.724Z,5.70
2018-12-19T21:10:00.265Z,5.80
2018-12-19T21:12:28.745Z,5.70
2018-12-19T21:14:57.205Z,5.60
2018-12-19T21:18:29.649Z,5.70
2018-12-19T21:20:58.064Z,5.80
2018-12-19T21:23:26.476Z,5.80
2018-12-19T21:25:54.854Z,5.70
2018-12-19T21:28:23.373Z,5.60
2018-12-19T21:30:51.804Z,5.50
2018-12-19T21:33:20.359Z,5.50
2018-12-19T21:35:48.698Z,5.50
2018-12-19T21:38:17.088Z,5.60
2018-12-19T21:40:46.736Z,5.70
2018-12-19T21:43:15.607Z,5.70
2018-12-19T21:45:44.061Z,5.70
2018-12-19T21:48:12.558Z,5.60
2018-12-19T21:50:41.077Z,5.50
2018-12-19T21:53:09.513Z,5.50
2018-12-19T21:55:38.208Z,5.60
2018-12-19T21:58:06.648Z,5.50
2018-12-19T22:00:37.697Z,5.50
2018-12-19T22:03:07.210Z,5.50
2018-12-19T22:05:37.540Z,5.40
2018-12-19T22:08:05.989Z,5.40
2018-12-19T22:10:34.561Z,5.50
2018-12-19T22:13:03.132Z,5.50
2018-12-19T22:15:32.639Z,5.60
2018-12-19T22:18:06.473Z,5.70
2018-12-19T22:20:35.007Z,5.70
2018-12-19T22:23:03.723Z,5.70
2018-12-19T22:25:32.885Z,5.70
2018-12-19T22:28:01.355Z,5.80
2018-12-19T22:30:30.485Z,5.80
2018-12-19T22:32:59.073Z,5.70
2018-12-19T22:35:27.709Z,5.70
2018-12-19T22:37:56.209Z,5.80
2018-12-19T22:40:25.408Z,5.60
2018-12-19T22:42:54.010Z,5.60
2018-12-19T22:45:22.703Z,5.60
2018-12-19T22:47:51.998Z,5.60
2018-12-19T22:50:20.929Z,5.60
2018-12-19T22:52:49.588Z,5.60
2018-12-19T22:55:18.212Z,5.60
2018-12-19T22:57:46.979Z,5.70
2018-12-19T23:00:18.248Z,5.70
2018-12-19T23:02:52.309Z,5.70
2018-12-19T23:05:26.407Z,5.60
2018-12-19T23:07:55.091Z,5.60
2018-12-19T23:10:23.628Z,5.70
2018-12-19T23:12:52.559Z,5.60
2018-12-19T23:15:21.279Z,5.50
2018-12-19T23:17:51.410Z,5.50
2018-12-19T23:20:20.118Z,5.60
2018-12-19T23:22:48.605Z,5.60
2018-12-19T23:25:17.767Z,5.50
2018-12-19T23:27:46.235Z,5.50
2018-12-19T23:30:14.990Z,5.50
2018-12-19T23:32:43.545Z,5.60
2018-12-19T23:35:11.904Z,5.70
2018-12-19T23:37:40.382Z,5.60
2018-12-19T23:40:08.897Z,5.50
2018-12-19T23:42:37.286Z,5.50
2018-12-19T23:45:06.054Z,5.50
2018-12-19T23:47:34.521Z,5.50
2018-12-19T23:50:03.027Z,5.50
2018-12-19T23:52:31.475Z,5.50
2018-12-19T23:54:59.964Z,5.50
2018-12-19T23:57:28.540Z,5.50
2018-12-19T23:59:57.084Z,5.60
